sensor_id;sensor_type;location;lat;lon;timestamp;pressure;altitude;pressure_sealevel;temperature;humidity
50977;BME280;36992;48.200;12.418;2023-03-18T00:00:12;96294.88;;;10.64;44.44
50977;BME280;36992;48.200;12.418;2023-03-18T00:02:40;96313.81;;;10.59;44.71
50977;BME280;36992;48.200;12.418;2023-03-18T00:05:08;96306.84;;;10.58;44.68
50977;BME280;36992;48.200;12.418;2023-03-18T00:07:35;96313.63;;;10.56;44.90
50977;BME280;36992;48.200;12.418;2023-03-18T00:10:02;96307.44;;;10.55;44.83
50977;BME280;36992;48.200;12.418;2023-03-18T00:12:29;96322.00;;;10.54;44.86
50977;BME280;36992;48.200;12.418;2023-03-18T00:14:56;96318.81;;;10.52;44.90
50977;BME280;36992;48.200;12.418;2023-03-18T00:17:25;96308.53;;;10.54;44.74
50977;BME280;36992;48.200;12.418;2023-03-18T00:19:51;96328.00;;;10.51;44.88
50977;BME280;36992;48.200;12.418;2023-03-18T00:22:18;96315.63;;;10.50;44.85
50977;BME280;36992;48.200;12.418;2023-03-18T00:24:46;96335.56;;;10.49;44.93
50977;BME280;36992;48.200;12.418;2023-03-18T00:27:13;96321.31;;;10.48;45.04
50977;BME280;36992;48.200;12.418;2023-03-18T00:29:39;96340.75;;;10.45;45.30
50977;BME280;36992;48.200;12.418;2023-03-18T00:32:06;96331.91;;;10.45;45.29
50977;BME280;36992;48.200;12.418;2023-03-18T00:34:34;96339.16;;;10.44;45.04
50977;BME280;36992;48.200;12.418;2023-03-18T00:37:01;96348.13;;;10.39;45.17
50977;BME280;36992;48.200;12.418;2023-03-18T00:39:27;96321.78;;;10.36;45.25
50977;BME280;36992;48.200;12.418;2023-03-18T00:41:57;96333.66;;;10.35;45.30
50977;BME280;36992;48.200;12.418;2023-03-18T00:44:23;96327.78;;;10.33;45.16
50977;BME280;36992;48.200;12.418;2023-03-18T00:46:50;96346.13;;;10.31;45.24
50977;BME280;36992;48.200;12.418;2023-03-18T00:49:17;96336.72;;;10.29;45.32
50977;BME280;36992;48.200;12.418;2023-03-18T00:51:45;96337.53;;;10.29;45.28
50977;BME280;36992;48.200;12.418;2023-03-18T00:54:12;96339.75;;;10.27;45.22
50977;BME280;36992;48.200;12.418;2023-03-18T00:56:42;96335.75;;;10.24;45.44
50977;BME280;36992;48.200;12.418;2023-03-18T00:59:08;96332.56;;;10.22;45.35
50977;BME280;36992;48.200;12.418;2023-03-18T01:01:36;96341.22;;;10.19;45.46
50977;BME280;36992;48.200;12.418;2023-03-18T01:04:03;96334.25;;;10.18;45.36
50977;BME280;36992;48.200;12.418;2023-03-18T01:06:32;96334.25;;;10.18;45.29
50977;BME280;36992;48.200;12.418;2023-03-18T01:09:03;96335.66;;;10.16;45.37
50977;BME280;36992;48.200;12.418;2023-03-18T01:11:31;96329.25;;;10.11;45.63
50977;BME280;36992;48.200;12.418;2023-03-18T01:13:58;96331.47;;;10.09;45.85
50977;BME280;36992;48.200;12.418;2023-03-18T01:16:25;96332.84;;;10.07;45.64
50977;BME280;36992;48.200;12.418;2023-03-18T01:18:52;96329.97;;;10.03;45.82
50977;BME280;36992;48.200;12.418;2023-03-18T01:21:18;96321.41;;;10.01;45.83
50977;BME280;36992;48.200;12.418;2023-03-18T01:23:45;96321.16;;;9.97;46.15
50977;BME280;36992;48.200;12.418;2023-03-18T01:26:13;96325.78;;;9.97;45.85
50977;BME280;36992;48.200;12.418;2023-03-18T01:28:40;96336.03;;;9.95;46.07
50977;BME280;36992;48.200;12.418;2023-03-18T01:31:07;96326.66;;;9.92;46.03
50977;BME280;36992;48.200;12.418;2023-03-18T01:33:34;96332.34;;;9.91;46.34
50977;BME280;36992;48.200;12.418;2023-03-18T01:36:01;96331.84;;;9.89;46.34
50977;BME280;36992;48.200;12.418;2023-03-18T01:38:29;96325.94;;;9.87;46.27
50977;BME280;36992;48.200;12.418;2023-03-18T01:40:56;96333.53;;;9.84;46.50
50977;BME280;36992;48.200;12.418;2023-03-18T01:43:34;96333.25;;;9.86;45.96
50977;BME280;36992;48.200;12.418;2023-03-18T01:46:25;96323.66;;;9.80;46.64
50977;BME280;36992;48.200;12.418;2023-03-18T01:48:49;96334.72;;;9.78;46.58
50977;BME280;36992;48.200;12.418;2023-03-18T01:51:17;96331.81;;;9.75;46.64
50977;BME280;36992;48.200;12.418;2023-03-18T01:53:46;96335.91;;;9.72;46.42
50977;BME280;36992;48.200;12.418;2023-03-18T01:56:14;96333.78;;;9.69;46.76
50977;BME280;36992;48.200;12.418;2023-03-18T01:58:45;96333.50;;;9.70;46.22
50977;BME280;36992;48.200;12.418;2023-03-18T02:01:16;96336.47;;;9.69;46.60
50977;BME280;36992;48.200;12.418;2023-03-18T02:03:44;96338.19;;;9.65;46.96
50977;BME280;36992;48.200;12.418;2023-03-18T02:06:12;96336.88;;;9.62;47.06
50977;BME280;36992;48.200;12.418;2023-03-18T02:08:39;96346.81;;;9.62;46.99
50977;BME280;36992;48.200;12.418;2023-03-18T02:11:06;96346.03;;;9.61;47.01
50977;BME280;36992;48.200;12.418;2023-03-18T02:13:34;96345.22;;;9.61;47.14
50977;BME280;36992;48.200;12.418;2023-03-18T02:16:06;96333.91;;;9.64;46.71
50977;BME280;36992;48.200;12.418;2023-03-18T02:18:37;96343.03;;;9.63;47.04
50977;BME280;36992;48.200;12.418;2023-03-18T02:21:14;96343.56;;;9.65;46.63
50977;BME280;36992;48.200;12.418;2023-03-18T02:23:51;96343.56;;;9.65;46.61
50977;BME280;36992;48.200;12.418;2023-03-18T02:26:24;96340.88;;;9.65;46.71
50977;BME280;36992;48.200;12.418;2023-03-18T02:28:57;96344.34;;;9.65;47.02
50977;BME280;36992;48.200;12.418;2023-03-18T02:31:27;96344.13;;;9.62;47.43
50977;BME280;36992;48.200;12.418;2023-03-18T02:33:54;96346.81;;;9.62;47.42
50977;BME280;36992;48.200;12.418;2023-03-18T02:36:23;96354.59;;;9.63;47.30
50977;BME280;36992;48.200;12.418;2023-03-18T02:38:50;96354.09;;;9.61;47.28
50977;BME280;36992;48.200;12.418;2023-03-18T02:41:18;96355.97;;;9.61;47.48
50977;BME280;36992;48.200;12.418;2023-03-18T02:43:45;96361.38;;;9.61;47.43
50977;BME280;36992;48.200;12.418;2023-03-18T02:46:30;96355.91;;;9.66;46.45
50977;BME280;36992;48.200;12.418;2023-03-18T02:48:59;96364.53;;;9.63;47.28
50977;BME280;36992;48.200;12.418;2023-03-18T02:51:27;96360.56;;;9.60;47.41
50977;BME280;36992;48.200;12.418;2023-03-18T02:53:57;96361.38;;;9.61;47.28
50977;BME280;36992;48.200;12.418;2023-03-18T02:56:26;96360.06;;;9.58;47.46
50977;BME280;36992;48.200;12.418;2023-03-18T02:58:52;96361.97;;;9.57;47.78
50977;BME280;36992;48.200;12.418;2023-03-18T03:01:19;96365.72;;;9.56;47.71
50977;BME280;36992;48.200;12.418;2023-03-18T03:03:47;96369.22;;;9.57;47.32
50977;BME280;36992;48.200;12.418;2023-03-18T03:06:14;96371.69;;;9.53;47.84
50977;BME280;36992;48.200;12.418;2023-03-18T03:08:41;96382.47;;;9.53;48.13
50977;BME280;36992;48.200;12.418;2023-03-18T03:11:08;96377.38;;;9.52;48.08
50977;BME280;36992;48.200;12.418;2023-03-18T03:13:34;96382.75;;;9.52;47.94
50977;BME280;36992;48.200;12.418;2023-03-18T03:16:01;96383.84;;;9.51;47.94
50977;BME280;36992;48.200;12.418;2023-03-18T03:18:27;96386.03;;;9.49;48.42
50977;BME280;36992;48.200;12.418;2023-03-18T03:20:56;96390.31;;;9.50;48.01
50977;BME280;36992;48.200;12.418;2023-03-18T03:23:23;96388.50;;;9.45;47.97
50977;BME280;36992;48.200;12.418;2023-03-18T03:25:49;96394.16;;;9.43;48.18
50977;BME280;36992;48.200;12.418;2023-03-18T03:28:16;96395.56;;;9.41;48.01
50977;BME280;36992;48.200;12.418;2023-03-18T03:30:43;96399.91;;;9.37;47.81
50977;BME280;36992;48.200;12.418;2023-03-18T03:33:10;96400.50;;;9.34;47.75
50977;BME280;36992;48.200;12.418;2023-03-18T03:35:37;96403.75;;;9.30;47.73
50977;BME280;36992;48.200;12.418;2023-03-18T03:38:05;96403.75;;;9.30;47.92
50977;BME280;36992;48.200;12.418;2023-03-18T03:40:32;96412.91;;;9.29;47.86
50977;BME280;36992;48.200;12.418;2023-03-18T03:42:59;96411.59;;;9.27;48.37
50977;BME280;36992;48.200;12.418;2023-03-18T03:45:26;96418.56;;;9.28;48.18
50977;BME280;36992;48.200;12.418;2023-03-18T03:47:52;96422.06;;;9.28;48.51
50977;BME280;36992;48.200;12.418;2023-03-18T03:50:19;96423.16;;;9.27;48.35
50977;BME280;36992;48.200;12.418;2023-03-18T03:52:46;96415.09;;;9.27;48.50
50977;BME280;36992;48.200;12.418;2023-03-18T03:55:16;96414.50;;;9.30;48.19
50977;BME280;36992;48.200;12.418;2023-03-18T03:57:44;96423.16;;;9.27;48.38
50977;BME280;36992;48.200;12.418;2023-03-18T04:00:13;96429.84;;;9.30;48.56
50977;BME280;36992;48.200;12.418;2023-03-18T04:02:42;96426.34;;;9.29;48.70
50977;BME280;36992;48.200;12.418;2023-03-18T04:05:10;96435.50;;;9.28;48.53
50977;BME280;36992;48.200;12.418;2023-03-18T04:07:37;96440.88;;;9.28;48.80
50977;BME280;36992;48.200;12.418;2023-03-18T04:10:05;96440.88;;;9.28;48.60
50977;BME280;36992;48.200;12.418;2023-03-18T04:12:35;96436.31;;;9.29;48.48
50977;BME280;36992;48.200;12.418;2023-03-18T04:15:02;96435.00;;;9.26;48.88
50977;BME280;36992;48.200;12.418;2023-03-18T04:17:29;96439.28;;;9.27;48.77
50977;BME280;36992;48.200;12.418;2023-03-18T04:19:55;96444.66;;;9.27;48.85
50977;BME280;36992;48.200;12.418;2023-03-18T04:22:22;96441.97;;;9.27;48.65
50977;BME280;36992;48.200;12.418;2023-03-18T04:24:49;96440.38;;;9.26;49.03
50977;BME280;36992;48.200;12.418;2023-03-18T04:27:16;96440.38;;;9.26;49.10
50977;BME280;36992;48.200;12.418;2023-03-18T04:29:44;96440.06;;;9.28;48.83
50977;BME280;36992;48.200;12.418;2023-03-18T04:32:11;96438.75;;;9.25;49.32
50977;BME280;36992;48.200;12.418;2023-03-18T04:34:38;96443.06;;;9.26;48.99
50977;BME280;36992;48.200;12.418;2023-03-18T04:37:05;96443.38;;;9.25;49.11
50977;BME280;36992;48.200;12.418;2023-03-18T04:39:31;96446.03;;;9.25;49.38
50977;BME280;36992;48.200;12.418;2023-03-18T04:41:58;96439.88;;;9.24;49.16
50977;BME280;36992;48.200;12.418;2023-03-18T04:44:25;96443.66;;;9.23;49.16
50977;BME280;36992;48.200;12.418;2023-03-18T04:46:52;96441.44;;;9.25;49.52
50977;BME280;36992;48.200;12.418;2023-03-18T04:49:19;96447.16;;;9.24;49.56
50977;BME280;36992;48.200;12.418;2023-03-18T04:51:46;96442.03;;;9.22;49.46
50977;BME280;36992;48.200;12.418;2023-03-18T04:54:12;96446.31;;;9.23;49.45
50977;BME280;36992;48.200;12.418;2023-03-18T04:56:39;96447.44;;;9.22;49.36
50977;BME280;36992;48.200;12.418;2023-03-18T04:59:05;96448.22;;;9.23;48.94
50977;BME280;36992;48.200;12.418;2023-03-18T05:01:32;96449.03;;;9.23;48.34
50977;BME280;36992;48.200;12.418;2023-03-18T05:04:00;96459.22;;;9.26;48.09
50977;BME280;36992;48.200;12.418;2023-03-18T05:06:28;96453.81;;;9.26;47.89
50977;BME280;36992;48.200;12.418;2023-03-18T05:08:56;96456.00;;;9.24;48.02
50977;BME280;36992;48.200;12.418;2023-03-18T05:11:23;96457.09;;;9.23;47.75
50977;BME280;36992;48.200;12.418;2023-03-18T05:13:50;96452.81;;;9.22;47.80
50977;BME280;36992;48.200;12.418;2023-03-18T05:16:16;96453.88;;;9.21;48.02
50977;BME280;36992;48.200;12.418;2023-03-18T05:18:43;96458.75;;;9.19;47.59
50977;BME280;36992;48.200;12.418;2023-03-18T05:21:12;96461.44;;;9.19;47.45
50977;BME280;36992;48.200;12.418;2023-03-18T05:23:38;96455.06;;;9.15;47.83
50977;BME280;36992;48.200;12.418;2023-03-18T05:26:05;96461.50;;;9.14;48.01
50977;BME280;36992;48.200;12.418;2023-03-18T05:28:32;96461.50;;;9.14;47.94
50977;BME280;36992;48.200;12.418;2023-03-18T05:30:58;96448.66;;;9.11;47.94
50977;BME280;36992;48.200;12.418;2023-03-18T05:33:25;96455.09;;;9.10;48.01
50977;BME280;36992;48.200;12.418;2023-03-18T05:35:51;96454.59;;;9.08;48.02
50977;BME280;36992;48.200;12.418;2023-03-18T05:38:19;96457.28;;;9.08;47.83
50977;BME280;36992;48.200;12.418;2023-03-18T05:40:46;96459.75;;;9.04;48.24
50977;BME280;36992;48.200;12.418;2023-03-18T05:43:13;96461.63;;;9.03;48.41
50977;BME280;36992;48.200;12.418;2023-03-18T05:45:40;96459.22;;;9.02;48.52
50977;BME280;36992;48.200;12.418;2023-03-18T05:48:07;96458.44;;;9.01;48.74
50977;BME280;36992;48.200;12.418;2023-03-18T05:50:36;96469.19;;;9.01;48.40
50977;BME280;36992;48.200;12.418;2023-03-18T05:53:03;96460.03;;;9.02;48.70
50977;BME280;36992;48.200;12.418;2023-03-18T05:55:32;96470.50;;;9.04;48.61
50977;BME280;36992;48.200;12.418;2023-03-18T05:57:59;96470.78;;;9.02;48.67
50977;BME280;36992;48.200;12.418;2023-03-18T06:00:26;96470.78;;;9.02;48.60
50977;BME280;36992;48.200;12.418;2023-03-18T06:02:54;96474.56;;;9.01;48.59
50977;BME280;36992;48.200;12.418;2023-03-18T06:05:21;96478.84;;;9.02;48.42
50977;BME280;36992;48.200;12.418;2023-03-18T06:07:49;96477.25;;;9.01;48.65
50977;BME280;36992;48.200;12.418;2023-03-18T06:10:16;96479.94;;;9.01;48.70
50977;BME280;36992;48.200;12.418;2023-03-18T06:12:44;96481.53;;;9.02;48.49
50977;BME280;36992;48.200;12.418;2023-03-18T06:15:12;96476.72;;;8.99;48.50
50977;BME280;36992;48.200;12.418;2023-03-18T06:17:38;96482.09;;;8.99;48.72
50977;BME280;36992;48.200;12.418;2023-03-18T06:20:07;96482.63;;;9.01;49.02
50977;BME280;36992;48.200;12.418;2023-03-18T06:22:34;96486.38;;;9.00;48.70
50977;BME280;36992;48.200;12.418;2023-03-18T06:25:01;96479.94;;;9.01;49.05
50977;BME280;36992;48.200;12.418;2023-03-18T06:27:28;96486.38;;;9.00;48.98
50977;BME280;36992;48.200;12.418;2023-03-18T06:29:56;96481.53;;;9.02;48.89
50977;BME280;36992;48.200;12.418;2023-03-18T06:32:26;96485.31;;;9.01;49.00
50977;BME280;36992;48.200;12.418;2023-03-18T06:34:54;96490.69;;;9.01;48.83
50977;BME280;36992;48.200;12.418;2023-03-18T06:37:21;96495.25;;;9.01;48.94
50977;BME280;36992;48.200;12.418;2023-03-18T06:39:47;96497.13;;;9.00;48.94
50977;BME280;36992;48.200;12.418;2023-03-18T06:42:14;96497.13;;;9.00;49.02
50977;BME280;36992;48.200;12.418;2023-03-18T06:44:41;96498.75;;;9.01;48.99
50977;BME280;36992;48.200;12.418;2023-03-18T06:47:16;96486.91;;;9.02;48.93
50977;BME280;36992;48.200;12.418;2023-03-18T06:49:42;96494.97;;;9.02;49.09
50977;BME280;36992;48.200;12.418;2023-03-18T06:52:09;96495.47;;;9.04;48.85
50977;BME280;36992;48.200;12.418;2023-03-18T06:54:36;96492.78;;;9.04;49.18
50977;BME280;36992;48.200;12.418;2023-03-18T06:57:02;96486.03;;;9.07;49.34
50977;BME280;36992;48.200;12.418;2023-03-18T06:59:28;96493.81;;;9.09;49.39
50977;BME280;36992;48.200;12.418;2023-03-18T07:01:55;96493.53;;;9.10;49.51
50977;BME280;36992;48.200;12.418;2023-03-18T07:04:23;96497.25;;;9.14;48.72
50977;BME280;36992;48.200;12.418;2023-03-18T07:06:50;96496.94;;;9.16;49.18
50977;BME280;36992;48.200;12.418;2023-03-18T07:09:16;96500.16;;;9.18;49.23
50977;BME280;36992;48.200;12.418;2023-03-18T07:11:43;96506.84;;;9.21;49.58
50977;BME280;36992;48.200;12.418;2023-03-18T07:14:10;96510.84;;;9.23;49.68
50977;BME280;36992;48.200;12.418;2023-03-18T07:16:38;96504.09;;;9.26;49.65
50977;BME280;36992;48.200;12.418;2023-03-18T07:19:05;96500.03;;;9.28;49.39
50977;BME280;36992;48.200;12.418;2023-03-18T07:21:33;96496.19;;;9.35;49.79
50977;BME280;36992;48.200;12.418;2023-03-18T07:24:00;96505.03;;;9.35;49.99
50977;BME280;36992;48.200;12.418;2023-03-18T07:26:28;96500.47;;;9.36;49.79
50977;BME280;36992;48.200;12.418;2023-03-18T07:28:55;96505.28;;;9.39;49.97
50977;BME280;36992;48.200;12.418;2023-03-18T07:31:22;96500.13;;;9.42;50.07
50977;BME280;36992;48.200;12.418;2023-03-18T07:33:49;96504.41;;;9.43;49.78
50977;BME280;36992;48.200;12.418;2023-03-18T07:36:15;96504.63;;;9.47;49.83
50977;BME280;36992;48.200;12.418;2023-03-18T07:38:43;96505.66;;;9.51;49.31
50977;BME280;36992;48.200;12.418;2023-03-18T07:41:10;96509.94;;;9.52;50.19
50977;BME280;36992;48.200;12.418;2023-03-18T07:43:36;96499.69;;;9.54;50.81
50977;BME280;36992;48.200;12.418;2023-03-18T07:46:04;96503.69;;;9.57;50.91
50977;BME280;36992;48.200;12.418;2023-03-18T07:48:30;96505.28;;;9.58;49.81
50977;BME280;36992;48.200;12.418;2023-03-18T07:50:58;96501.19;;;9.61;49.88
50977;BME280;36992;48.200;12.418;2023-03-18T07:53:25;96499.81;;;9.63;50.25
50977;BME280;36992;48.200;12.418;2023-03-18T07:55:53;96505.91;;;9.69;50.09
50977;BME280;36992;48.200;12.418;2023-03-18T07:58:20;96507.53;;;9.70;49.90
50977;BME280;36992;48.200;12.418;2023-03-18T08:00:46;96506.66;;;9.75;50.88
50977;BME280;36992;48.200;12.418;2023-03-18T08:03:14;96507.66;;;9.79;50.54
50977;BME280;36992;48.200;12.418;2023-03-18T08:05:40;96517.84;;;9.82;51.35
50977;BME280;36992;48.200;12.418;2023-03-18T08:08:07;96509.72;;;9.87;50.85
50977;BME280;36992;48.200;12.418;2023-03-18T08:10:34;96514.22;;;9.92;50.82
50977;BME280;36992;48.200;12.418;2023-03-18T08:13:02;96519.22;;;9.98;50.83
50977;BME280;36992;48.200;12.418;2023-03-18T08:15:29;96522.13;;;10.02;51.21
50977;BME280;36992;48.200;12.418;2023-03-18T08:17:55;96522.84;;;10.08;51.53
50977;BME280;36992;48.200;12.418;2023-03-18T08:20:22;96528.16;;;10.13;51.33
50977;BME280;36992;48.200;12.418;2023-03-18T08:22:48;96519.19;;;10.18;50.85
50977;BME280;36992;48.200;12.418;2023-03-18T08:25:15;96522.59;;;10.23;51.19
50977;BME280;36992;48.200;12.418;2023-03-18T08:27:42;96522.50;;;10.29;50.41
50977;BME280;36992;48.200;12.418;2023-03-18T08:30:11;96521.03;;;10.36;50.42
50977;BME280;36992;48.200;12.418;2023-03-18T08:32:38;96519.66;;;10.39;50.86
50977;BME280;36992;48.200;12.418;2023-03-18T08:35:05;96520.41;;;10.45;50.63
50977;BME280;36992;48.200;12.418;2023-03-18T08:37:34;96521.91;;;10.51;50.33
50977;BME280;36992;48.200;12.418;2023-03-18T08:40:00;96526.13;;;10.57;50.78
50977;BME280;36992;48.200;12.418;2023-03-18T08:42:27;96524.94;;;10.63;50.18
50977;BME280;36992;48.200;12.418;2023-03-18T08:44:54;96519.44;;;10.69;50.69
50977;BME280;36992;48.200;12.418;2023-03-18T08:47:22;96520.34;;;10.78;50.59
50977;BME280;36992;48.200;12.418;2023-03-18T08:49:49;96520.56;;;10.82;50.83
50977;BME280;36992;48.200;12.418;2023-03-18T08:52:16;96514.75;;;10.88;50.35
50977;BME280;36992;48.200;12.418;2023-03-18T08:54:42;96518.94;;;10.95;51.08
50977;BME280;36992;48.200;12.418;2023-03-18T08:57:09;96509.38;;;11.02;50.80
50977;BME280;36992;48.200;12.418;2023-03-18T08:59:35;96508.97;;;11.09;51.19
50977;BME280;36992;48.200;12.418;2023-03-18T09:02:02;96503.97;;;11.16;50.97
50977;BME280;36992;48.200;12.418;2023-03-18T09:04:30;96504.84;;;11.26;50.26
50977;BME280;36992;48.200;12.418;2023-03-18T09:06:57;96508.56;;;11.30;50.39
50977;BME280;36992;48.200;12.418;2023-03-18T09:09:25;96507.84;;;11.38;50.07
50977;BME280;36992;48.200;12.418;2023-03-18T09:11:51;96502.53;;;11.47;49.68
50977;BME280;36992;48.200;12.418;2023-03-18T09:14:18;96498.31;;;11.55;49.83
50977;BME280;36992;48.200;12.418;2023-03-18T09:16:45;96509.50;;;11.62;49.19
50977;BME280;36992;48.200;12.418;2023-03-18T09:19:11;96505.28;;;11.70;49.09
50977;BME280;36992;48.200;12.418;2023-03-18T09:21:39;96498.84;;;11.80;48.51
50977;BME280;36992;48.200;12.418;2023-03-18T09:24:06;96504.13;;;11.85;48.36
50977;BME280;36992;48.200;12.418;2023-03-18T09:26:33;96506.91;;;11.94;48.67
50977;BME280;36992;48.200;12.418;2023-03-18T09:28:59;96501.06;;;12.00;49.11
50977;BME280;36992;48.200;12.418;2023-03-18T09:31:26;96507.66;;;12.08;48.56
50977;BME280;36992;48.200;12.418;2023-03-18T09:33:52;96504.56;;;12.15;48.68
50977;BME280;36992;48.200;12.418;2023-03-18T09:36:19;96496.81;;;12.22;49.05
50977;BME280;36992;48.200;12.418;2023-03-18T09:38:47;96500.34;;;12.32;48.71
50977;BME280;36992;48.200;12.418;2023-03-18T09:41:22;96503.91;;;12.41;48.36
50977;BME280;36992;48.200;12.418;2023-03-18T09:44:01;96500.44;;;12.49;48.44
50977;BME280;36992;48.200;12.418;2023-03-18T09:46:45;96495.56;;;12.60;47.69
50977;BME280;36992;48.200;12.418;2023-03-18T09:49:39;96484.19;;;12.72;48.12
50977;BME280;36992;48.200;12.418;2023-03-18T09:52:16;96495.34;;;12.79;47.92
50977;BME280;36992;48.200;12.418;2023-03-18T09:54:48;96487.59;;;12.87;48.00
50977;BME280;36992;48.200;12.418;2023-03-18T09:57:20;96491.44;;;12.94;47.87
50977;BME280;36992;48.200;12.418;2023-03-18T09:59:52;96482.88;;;13.01;47.81
50977;BME280;36992;48.200;12.418;2023-03-18T10:02:23;96484.81;;;13.09;47.37
50977;BME280;36992;48.200;12.418;2023-03-18T10:04:54;96487.03;;;13.16;47.15
50977;BME280;36992;48.200;12.418;2023-03-18T10:07:26;96484.34;;;13.25;47.51
50977;BME280;36992;48.200;12.418;2023-03-18T10:09:59;96484.69;;;13.32;47.32
50977;BME280;36992;48.200;12.418;2023-03-18T10:12:30;96485.81;;;13.40;47.53
50977;BME280;36992;48.200;12.418;2023-03-18T10:15:05;96491.28;;;13.49;47.40
50977;BME280;36992;48.200;12.418;2023-03-18T10:17:38;96487.31;;;13.55;47.35
50977;BME280;36992;48.200;12.418;2023-03-18T10:20:14;96483.50;;;13.65;47.61
50977;BME280;36992;48.200;12.418;2023-03-18T10:23:08;96478.88;;;13.74;47.31
50977;BME280;36992;48.200;12.418;2023-03-18T10:25:42;96483.81;;;13.81;46.83
50977;BME280;36992;48.200;12.418;2023-03-18T10:28:48;96489.72;;;13.92;47.23
50977;BME280;36992;48.200;12.418;2023-03-18T10:31:26;96484.47;;;13.96;47.20
50977;BME280;36992;48.200;12.418;2023-03-18T10:33:58;96494.63;;;13.99;47.22
50977;BME280;36992;48.200;12.418;2023-03-18T10:36:30;96498.16;;;14.08;47.40
50977;BME280;36992;48.200;12.418;2023-03-18T10:39:02;96494.47;;;14.13;46.54
50977;BME280;36992;48.200;12.418;2023-03-18T10:41:32;96497.19;;;14.22;47.07
50977;BME280;36992;48.200;12.418;2023-03-18T10:44:02;96491.59;;;14.27;46.91
50977;BME280;36992;48.200;12.418;2023-03-18T10:46:29;96492.22;;;14.33;46.67
50977;BME280;36992;48.200;12.418;2023-03-18T10:48:59;96482.16;;;14.42;47.05
50977;BME280;36992;48.200;12.418;2023-03-18T10:51:33;96487.88;;;14.49;47.27
50977;BME280;36992;48.200;12.418;2023-03-18T10:54:08;96489.28;;;14.55;46.36
50977;BME280;36992;48.200;12.418;2023-03-18T10:56:38;96482.56;;;14.62;46.50
50977;BME280;36992;48.200;12.418;2023-03-18T10:59:10;96488.28;;;14.69;46.70
50977;BME280;36992;48.200;12.418;2023-03-18T11:01:37;96483.00;;;14.73;46.60
50977;BME280;36992;48.200;12.418;2023-03-18T11:04:05;96483.31;;;14.80;46.14
50977;BME280;36992;48.200;12.418;2023-03-18T11:06:41;96478.69;;;14.89;46.66
50977;BME280;36992;48.200;12.418;2023-03-18T11:09:10;96480.09;;;14.95;45.74
50977;BME280;36992;48.200;12.418;2023-03-18T11:11:41;96479.06;;;15.09;45.63
50977;BME280;36992;48.200;12.418;2023-03-18T11:14:12;96479.34;;;15.16;45.56
50977;BME280;36992;48.200;12.418;2023-03-18T11:16:45;96471.94;;;15.26;44.67
50977;BME280;36992;48.200;12.418;2023-03-18T11:19:29;96462.59;;;15.35;45.25
50977;BME280;36992;48.200;12.418;2023-03-18T11:22:03;96457.47;;;15.43;44.63
50977;BME280;36992;48.200;12.418;2023-03-18T11:24:31;96459.97;;;15.48;43.59
50977;BME280;36992;48.200;12.418;2023-03-18T11:27:23;96460.03;;;15.60;44.59
50977;BME280;36992;48.200;12.418;2023-03-18T11:29:54;96457.13;;;15.65;43.64
50977;BME280;36992;48.200;12.418;2023-03-18T11:32:24;96451.81;;;15.69;42.03
50977;BME280;36992;48.200;12.418;2023-03-18T11:34:53;96450.16;;;15.77;40.90
50977;BME280;36992;48.200;12.418;2023-03-18T11:37:25;96446.56;;;15.85;41.22
50977;BME280;36992;48.200;12.418;2023-03-18T11:39:53;96439.69;;;15.88;41.14
50977;BME280;36992;48.200;12.418;2023-03-18T11:42:33;96436.91;;;15.97;39.40
50977;BME280;36992;48.200;12.418;2023-03-18T11:45:00;96430.47;;;16.01;40.04
50977;BME280;36992;48.200;12.418;2023-03-18T11:47:29;96429.13;;;16.08;39.37
50977;BME280;36992;48.200;12.418;2023-03-18T11:50:01;96425.69;;;16.20;39.59
50977;BME280;36992;48.200;12.418;2023-03-18T11:52:35;96412.00;;;16.28;39.94
50977;BME280;36992;48.200;12.418;2023-03-18T11:55:14;96411.91;;;16.37;40.49
50977;BME280;36992;48.200;12.418;2023-03-18T11:58:11;96420.41;;;16.48;41.51
50977;BME280;36992;48.200;12.418;2023-03-18T12:00:51;96412.69;;;16.50;40.13
50977;BME280;36992;48.200;12.418;2023-03-18T12:03:37;96412.16;;;16.57;40.75
50977;BME280;36992;48.200;12.418;2023-03-18T12:06:15;96413.41;;;16.59;39.55
50977;BME280;36992;48.200;12.418;2023-03-18T12:08:50;96412.06;;;16.66;39.24
50977;BME280;36992;48.200;12.418;2023-03-18T12:11:38;96404.00;;;16.69;40.01
50977;BME280;36992;48.200;12.418;2023-03-18T12:14:14;96402.66;;;16.76;39.03
50977;BME280;36992;48.200;12.418;2023-03-18T12:16:50;96395.03;;;16.81;39.31
50977;BME280;36992;48.200;12.418;2023-03-18T12:19:37;96390.94;;;16.88;38.54
50977;BME280;36992;48.200;12.418;2023-03-18T12:22:30;96392.31;;;16.94;38.91
50977;BME280;36992;48.200;12.418;2023-03-18T12:25:06;96381.53;;;16.97;38.89
50977;BME280;36992;48.200;12.418;2023-03-18T12:27:42;96386.00;;;17.02;38.21
50977;BME280;36992;48.200;12.418;2023-03-18T12:30:27;96375.00;;;17.11;38.73
50977;BME280;36992;48.200;12.418;2023-03-18T12:33:01;96375.88;;;17.15;38.07
50977;BME280;36992;48.200;12.418;2023-03-18T12:35:40;96378.78;;;17.22;38.40
50977;BME280;36992;48.200;12.418;2023-03-18T12:38:43;96367.78;;;17.31;38.69
50977;BME280;36992;48.200;12.418;2023-03-18T12:41:19;96374.81;;;17.32;37.40
50977;BME280;36992;48.200;12.418;2023-03-18T12:44:01;96376.16;;;17.38;36.73
50977;BME280;36992;48.200;12.418;2023-03-18T12:46:37;96374.75;;;17.45;37.67
50977;BME280;36992;48.200;12.418;2023-03-18T12:49:10;96371.81;;;17.50;37.54
50977;BME280;36992;48.200;12.418;2023-03-18T12:51:43;96371.56;;;17.55;35.87
50977;BME280;36992;48.200;12.418;2023-03-18T12:54:17;96363.16;;;17.60;34.94
50977;BME280;36992;48.200;12.418;2023-03-18T12:56:48;96358.59;;;17.64;33.94
50977;BME280;36992;48.200;12.418;2023-03-18T12:59:22;96354.03;;;17.69;33.63
50977;BME280;36992;48.200;12.418;2023-03-18T13:02:02;96353.78;;;17.74;34.48
50977;BME280;36992;48.200;12.418;2023-03-18T13:04:33;96349.56;;;17.76;33.56
50977;BME280;36992;48.200;12.418;2023-03-18T13:07:06;96348.53;;;17.81;34.21